Time;durP1;ratioP1;P1;durP2;ratioP2;P2;SDS_P1;SDS_P2;PMS_P1;PMS_P2;Temp;Humidity;BMP_temperature;BMP_pressure;BME280_temperature;BME280_humidity;BME280_pressure;Samples;Min_cycle;Max_cycle;Signal;HPM_P1;HPM_P2
2020/12/21 00:00:14;;;;;;;11.17;9.00;;;9.60;99.90;;;;;;5050287;28;20233;-58
2020/12/21 00:02:41;;;;;;;11.90;9.87;;;9.60;99.90;;;;;;5050156;28;20221;-58
2020/12/21 00:05:08;;;;;;;12.57;9.37;;;9.60;99.90;;;;;;5049715;28;20209;-59
2020/12/21 00:07:34;;;;;;;10.70;9.00;;;9.50;99.90;;;;;;5049765;28;20852;-59
2020/12/21 00:10:01;;;;;;;9.80;8.80;;;9.50;99.90;;;;;;5051678;28;20201;-58
2020/12/21 00:12:27;;;;;;;11.87;9.07;;;9.50;99.90;;;;;;5053659;28;20221;-59
2020/12/21 00:14:53;;;;;;;15.50;9.37;;;9.40;99.90;;;;;;5053815;28;20209;-59
2020/12/21 00:17:19;;;;;;;12.53;9.20;;;9.40;99.90;;;;;;5053699;28;20225;-59
2020/12/21 00:19:46;;;;;;;10.30;8.53;;;9.30;99.90;;;;;;5053490;28;20597;-59
2020/12/21 00:22:12;;;;;;;11.77;9.03;;;9.30;99.90;;;;;;5054218;28;20297;-58
2020/12/21 00:24:39;;;;;;;11.97;8.57;;;9.30;99.90;;;;;;5053223;28;20206;-58
2020/12/21 00:27:05;;;;;;;12.60;8.97;;;9.30;99.90;;;;;;5053621;28;20222;-57
2020/12/21 00:29:31;;;;;;;9.53;8.53;;;9.40;99.90;;;;;;5053418;28;20292;-58
2020/12/21 00:31:57;;;;;;;11.13;8.50;;;9.40;99.90;;;;;;5053345;28;20285;-58
2020/12/21 00:34:23;;;;;;;11.20;8.73;;;9.50;99.90;;;;;;5053272;28;20210;-59
2020/12/21 00:36:52;;;;;;;10.53;8.63;;;9.50;99.90;;;;;;5053149;28;20732;-59
2020/12/21 00:39:19;;;;;;;10.60;8.50;;;9.50;99.90;;;;;;5052928;28;20206;-59
2020/12/21 00:41:46;;;;;;;10.73;8.87;;;9.50;99.90;;;;;;5053145;28;20208;-59
2020/12/21 00:44:13;;;;;;;12.03;9.13;;;9.60;99.90;;;;;;5052821;28;20351;-58
2020/12/21 00:46:40;;;;;;;10.80;8.77;;;9.70;99.90;;;;;;5053001;28;20226;-59
2020/12/21 00:49:07;;;;;;;10.37;8.87;;;9.70;99.90;;;;;;5052815;28;20214;-58
2020/12/21 00:51:34;;;;;;;10.30;8.63;;;9.70;99.90;;;;;;5052959;28;20304;-59
2020/12/21 00:54:01;;;;;;;10.60;8.03;;;9.80;99.90;;;;;;5052803;28;20202;-59
2020/12/21 00:56:27;;;;;;;12.77;8.70;;;9.70;99.90;;;;;;5052845;28;20206;-57
2020/12/21 00:58:53;;;;;;;9.27;8.10;;;9.60;99.90;;;;;;5052474;28;20593;-57
2020/12/21 01:01:22;;;;;;;9.70;8.70;;;9.60;99.90;;;;;;5053144;28;20208;-57
2020/12/21 01:03:48;;;;;;;10.33;8.27;;;9.60;99.90;;;;;;5052485;28;20228;-58
2020/12/21 01:06:14;;;;;;;9.83;8.73;;;9.70;99.90;;;;;;5052505;28;20210;-58
2020/12/21 01:08:41;;;;;;;10.17;8.40;;;9.80;99.90;;;;;;5052699;28;20213;-57
2020/12/21 01:11:12;;;;;;;9.90;8.17;;;9.80;99.90;;;;;;5052893;28;20715;-57
2020/12/21 01:13:38;;;;;;;9.33;8.23;;;9.80;99.90;;;;;;5052640;28;20244;-57
2020/12/21 01:16:05;;;;;;;8.83;7.67;;;9.70;99.90;;;;;;5052413;28;20209;-58
2020/12/21 01:18:31;;;;;;;9.13;7.60;;;9.60;99.90;;;;;;5052163;28;20720;-57
2020/12/21 01:20:58;;;;;;;9.50;7.50;;;9.60;99.90;;;;;;5052410;28;20208;-58
2020/12/21 01:23:24;;;;;;;9.50;7.70;;;9.60;99.90;;;;;;5052181;28;20235;-58
2020/12/21 01:25:50;;;;;;;9.27;7.80;;;9.50;99.90;;;;;;5052303;28;20208;-58
2020/12/21 01:28:17;;;;;;;9.83;7.87;;;9.40;99.90;;;;;;5051971;28;20782;-58
2020/12/21 01:30:44;;;;;;;8.47;7.53;;;9.40;99.90;;;;;;5052229;28;20302;-58
2020/12/21 01:33:10;;;;;;;11.83;8.70;;;9.40;99.90;;;;;;5052534;28;20202;-58
2020/12/21 01:35:37;;;;;;;9.13;8.13;;;9.40;99.90;;;;;;5052215;28;20677;-59
2020/12/21 01:38:03;;;;;;;9.50;8.20;;;9.50;99.90;;;;;;5051939;28;20291;-58
2020/12/21 01:40:29;;;;;;;12.00;8.63;;;9.60;99.90;;;;;;5052287;28;20217;-59
2020/12/21 01:42:56;;;;;;;9.83;8.13;;;9.60;99.90;;;;;;5052124;28;20212;-60
2020/12/21 01:45:23;;;;;;;9.53;8.43;;;9.70;99.90;;;;;;5051658;28;20259;-59
2020/12/21 01:47:49;;;;;;;8.77;7.87;;;9.70;99.90;;;;;;5051865;28;20229;-59
2020/12/21 01:50:16;;;;;;;12.23;8.33;;;9.70;99.90;;;;;;5051825;28;20263;-59
2020/12/21 01:52:42;;;;;;;10.40;9.23;;;9.70;99.90;;;;;;5051836;28;20202;-59
2020/12/21 01:55:09;;;;;;;10.47;8.50;;;9.70;99.90;;;;;;5051382;28;20219;-59
2020/12/21 01:57:38;;;;;;;10.60;8.93;;;9.70;99.90;;;;;;5051422;28;20233;-59
2020/12/21 02:00:06;;;;;;;11.27;8.40;;;9.60;99.90;;;;;;5051704;28;20205;-60
2020/12/21 02:02:33;;;;;;;10.80;8.60;;;9.60;99.90;;;;;;5051984;28;20561;-58
2020/12/21 02:05:01;;;;;;;10.00;8.53;;;9.60;99.90;;;;;;5051388;28;20685;-58
2020/12/21 02:07:29;;;;;;;9.40;7.97;;;9.50;99.90;;;;;;5051377;28;20845;-58
2020/12/21 02:09:55;;;;;;;9.60;7.90;;;9.50;99.90;;;;;;5051483;28;20217;-58
2020/12/21 02:12:21;;;;;;;9.07;8.10;;;9.60;99.90;;;;;;5051326;28;20693;-58
2020/12/21 02:14:48;;;;;;;11.10;7.97;;;9.50;99.90;;;;;;5051408;28;20582;-59
2020/12/21 02:17:14;;;;;;;9.00;7.73;;;9.40;99.90;;;;;;5051652;28;20236;-59
2020/12/21 02:19:41;;;;;;;8.43;7.53;;;9.50;99.90;;;;;;5051147;28;20201;-59
2020/12/21 02:22:11;;;;;;;9.73;7.50;;;9.50;99.90;;;;;;5051383;28;20201;-58
2020/12/21 02:24:38;;;;;;;8.47;7.53;;;9.40;99.90;;;;;;5051028;28;20291;-59
2020/12/21 02:27:04;;;;;;;8.67;7.70;;;9.30;99.90;;;;;;5051289;28;20283;-58
2020/12/21 02:29:30;;;;;;;8.73;7.83;;;9.10;99.90;;;;;;5051340;28;20209;-59
2020/12/21 02:31:58;;;;;;;8.43;7.47;;;9.00;99.90;;;;;;5050871;28;20598;-58
2020/12/21 02:34:25;;;;;;;8.10;7.30;;;8.90;99.90;;;;;;5051268;28;20589;-59
2020/12/21 02:36:51;;;;;;;9.33;8.27;;;8.80;99.90;;;;;;5051195;28;20312;-59
2020/12/21 02:39:18;;;;;;;9.23;8.17;;;8.70;99.90;;;;;;5050618;28;20208;-58
2020/12/21 02:41:44;;;;;;;10.10;8.27;;;8.60;99.90;;;;;;5051134;28;20205;-59
2020/12/21 02:44:10;;;;;;;9.70;8.37;;;8.50;99.90;;;;;;5050558;28;20677;-59
2020/12/21 02:46:37;;;;;;;10.40;8.13;;;8.30;99.90;;;;;;5050950;28;20225;-58
2020/12/21 02:49:03;;;;;;;10.77;8.60;;;8.20;99.90;;;;;;5050770;28;20205;-59
2020/12/21 02:51:29;;;;;;;10.20;8.43;;;8.10;99.90;;;;;;5050777;28;20588;-59
2020/12/21 02:53:55;;;;;;;9.87;8.00;;;8.00;99.90;;;;;;5050424;28;20232;-59
2020/12/21 02:56:22;;;;;;;10.67;8.97;;;8.00;99.90;;;;;;5050834;28;20212;-59
2020/12/21 02:58:48;;;;;;;12.37;9.17;;;8.00;99.90;;;;;;5050594;28;20231;-59
2020/12/21 03:01:14;;;;;;;11.90;9.43;;;8.00;99.90;;;;;;5050887;28;20669;-58
2020/12/21 03:03:40;;;;;;;12.70;8.87;;;7.90;99.90;;;;;;5050632;28;20574;-59
2020/12/21 03:06:07;;;;;;;11.23;9.03;;;7.90;99.90;;;;;;5050892;28;20213;-58
2020/12/21 03:08:33;;;;;;;12.27;8.87;;;7.70;99.90;;;;;;5090928;22;20239;-61
2020/12/21 03:10:59;;;;;;;12.87;9.27;;;7.70;99.90;;;;;;5070743;28;20221;-61
2020/12/21 03:13:26;;;;;;;10.93;8.67;;;7.60;99.90;;;;;;5070516;28;20631;-61
2020/12/21 03:15:52;;;;;;;13.20;9.43;;;7.70;99.90;;;;;;5070782;28;20233;-61
2020/12/21 03:18:18;;;;;;;9.37;8.13;;;7.70;99.90;;;;;;5070265;28;20235;-61
2020/12/21 03:20:44;;;;;;;10.40;7.93;;;7.70;99.90;;;;;;5070581;28;20201;-62
2020/12/21 03:23:11;;;;;;;8.47;7.57;;;7.80;99.90;;;;;;5070456;28;20205;-61
2020/12/21 03:25:37;;;;;;;10.03;8.67;;;7.80;99.90;;;;;;5070340;28;20208;-61
2020/12/21 03:28:03;;;;;;;10.63;8.57;;;7.80;99.90;;;;;;5070275;28;20244;-62
2020/12/21 03:30:30;;;;;;;12.00;9.33;;;7.80;99.90;;;;;;5070349;28;20737;-61
2020/12/21 03:32:56;;;;;;;12.00;9.53;;;7.80;99.90;;;;;;5070532;28;20217;-63
2020/12/21 03:35:22;;;;;;;10.50;8.40;;;7.70;99.90;;;;;;5070142;28;20212;-62
2020/12/21 03:37:48;;;;;;;9.00;7.57;;;7.70;99.90;;;;;;5069890;28;20232;-63
2020/12/21 03:40:14;;;;;;;7.53;6.27;;;7.70;99.90;;;;;;5070579;28;20201;-61
2020/12/21 03:42:41;;;;;;;7.27;6.00;;;7.60;99.90;;;;;;5070159;28;20673;-62
2020/12/21 03:45:07;;;;;;;6.43;5.60;;;7.60;99.90;;;;;;5071929;28;20673;-63
2020/12/21 03:47:34;;;;;;;6.47;5.27;;;7.60;99.90;;;;;;5074520;28;20224;-61
2020/12/21 03:50:00;;;;;;;8.30;5.83;;;7.50;99.90;;;;;;5074339;28;20209;-63
2020/12/21 03:52:26;;;;;;;9.43;6.20;;;7.50;99.90;;;;;;5074217;28;20240;-63
2020/12/21 03:54:52;;;;;;;8.10;6.10;;;7.50;99.90;;;;;;5073818;28;20200;-63
2020/12/21 03:57:19;;;;;;;7.90;5.50;;;7.50;99.90;;;;;;5074154;28;20228;-61
2020/12/21 03:59:45;;;;;;;9.07;6.73;;;7.40;99.90;;;;;;5073732;28;20205;-62
2020/12/21 04:02:11;;;;;;;9.00;7.03;;;7.40;99.90;;;;;;5074002;28;20201;-62
2020/12/21 04:04:38;;;;;;;8.47;7.40;;;7.40;99.90;;;;;;5073571;28;20205;-62
2020/12/21 04:07:04;;;;;;;10.93;7.80;;;7.30;99.90;;;;;;5073531;28;20294;-62
2020/12/21 04:09:30;;;;;;;9.90;7.63;;;7.30;99.90;;;;;;5073456;28;20583;-61
2020/12/21 04:11:56;;;;;;;11.57;9.10;;;7.30;99.90;;;;;;5073885;28;20302;-62
2020/12/21 04:14:22;;;;;;;10.20;8.23;;;7.30;99.90;;;;;;5073455;28;20213;-62
2020/12/21 04:16:49;;;;;;;11.37;9.47;;;7.30;99.90;;;;;;5073599;28;20726;-62
2020/12/21 04:19:15;;;;;;;14.03;9.27;;;7.30;99.90;;;;;;5073733;28;20209;-61
2020/12/21 04:21:42;;;;;;;11.43;9.30;;;7.20;99.90;;;;;;5073781;28;20204;-64
2020/12/21 04:24:08;;;;;;;11.73;9.00;;;7.10;99.90;;;;;;5073366;28;20208;-63
2020/12/21 04:26:34;;;;;;;9.50;8.50;;;7.00;99.90;;;;;;5073614;28;20204;-61
2020/12/21 04:29:00;;;;;;;10.53;8.23;;;6.80;99.90;;;;;;5073275;28;20212;-62
2020/12/21 04:31:26;;;;;;;10.60;8.73;;;6.80;99.90;;;;;;5073503;28;20326;-61
2020/12/21 04:33:52;;;;;;;12.03;9.80;;;6.70;99.90;;;;;;5073233;28;20551;-61
2020/12/21 04:36:19;;;;;;;12.60;9.50;;;6.50;99.90;;;;;;5073691;28;20205;-62
2020/12/21 04:38:46;;;;;;;10.37;9.07;;;6.50;99.90;;;;;;5073292;28;20221;-63
2020/12/21 04:41:12;;;;;;;10.77;9.03;;;6.40;99.90;;;;;;5073890;28;20200;-64
2020/12/21 04:43:39;;;;;;;11.50;9.80;;;6.30;99.90;;;;;;5073261;28;20564;-61
2020/12/21 04:46:07;;;;;;;10.67;8.77;;;6.30;99.90;;;;;;5075924;28;20201;-63
2020/12/21 04:48:39;;;;;;;11.27;9.27;;;6.30;99.90;;;;;;5078215;28;20239;-61
2020/12/21 04:51:06;;;;;;;14.17;9.70;;;6.30;99.90;;;;;;5077185;28;20692;-61
2020/12/21 04:53:32;;;;;;;10.30;8.87;;;6.30;99.90;;;;;;5075662;28;20672;-62
2020/12/21 04:56:00;;;;;;;10.80;9.03;;;6.10;99.90;;;;;;5078352;28;20215;-62
2020/12/21 04:58:26;;;;;;;11.77;9.60;;;6.00;99.90;;;;;;5078350;28;20236;-61
2020/12/21 05:00:53;;;;;;;10.57;9.00;;;6.10;99.90;;;;;;5075186;28;20585;-62
2020/12/21 05:03:19;;;;;;;10.07;8.40;;;6.10;99.90;;;;;;5073877;28;20590;-62
2020/12/21 05:05:45;;;;;;;10.87;9.03;;;6.10;99.90;;;;;;5073382;28;20208;-62
2020/12/21 05:08:14;;;;;;;10.70;8.40;;;6.10;99.90;;;;;;5073191;28;20243;-63
2020/12/21 05:10:42;;;;;;;10.03;8.50;;;6.20;99.90;;;;;;5073230;28;20211;-62
2020/12/21 05:13:10;;;;;;;11.17;8.37;;;6.20;99.90;;;;;;5073585;28;20342;-61
2020/12/21 05:15:36;;;;;;;11.90;8.87;;;6.30;99.90;;;;;;5073052;28;20201;-63
2020/12/21 05:18:08;;;;;;;10.20;8.30;;;6.20;99.90;;;;;;5073169;28;20225;-61
2020/12/21 05:20:36;;;;;;;9.63;8.63;;;6.20;99.90;;;;;;5073421;28;20209;-61
2020/12/21 05:23:04;;;;;;;10.40;8.50;;;6.30;99.90;;;;;;5073024;28;20208;-61
2020/12/21 05:25:31;;;;;;;9.30;8.23;;;6.30;99.90;;;;;;5072705;28;20205;-62
2020/12/21 05:28:10;;;;;;;10.10;8.70;;;6.40;99.90;;;;;;5072553;28;20229;-61
2020/12/21 05:30:36;;;;;;;10.00;8.13;;;6.50;99.90;;;;;;5073056;28;20232;-61
2020/12/21 05:33:02;;;;;;;11.83;8.70;;;6.50;99.90;;;;;;5072840;28;20236;-62
2020/12/21 05:35:29;;;;;;;10.53;7.63;;;6.60;99.90;;;;;;5072424;28;20200;-62
2020/12/21 05:37:56;;;;;;;10.03;8.93;;;6.70;99.90;;;;;;5072377;28;20256;-61
2020/12/21 05:40:24;;;;;;;11.10;9.27;;;6.80;99.90;;;;;;5072527;28;20212;-62
2020/12/21 05:42:51;;;;;;;10.60;8.53;;;6.90;99.90;;;;;;5072448;28;20204;-62
2020/12/21 05:45:18;;;;;;;10.20;8.40;;;7.00;99.90;;;;;;5072312;28;20444;-63
2020/12/21 05:47:48;;;;;;;9.23;8.23;;;7.00;99.90;;;;;;5072304;28;20233;-62
2020/12/21 05:50:20;;;;;;;9.87;8.43;;;7.00;99.90;;;;;;5072381;28;20590;-61
2020/12/21 05:52:52;;;;;;;10.33;8.40;;;7.00;99.90;;;;;;5072236;28;20251;-62
2020/12/21 05:55:20;;;;;;;9.50;7.93;;;7.00;99.90;;;;;;5071757;28;20216;-62
2020/12/21 05:57:48;;;;;;;8.63;7.70;;;7.00;99.90;;;;;;5072347;28;20232;-61
2020/12/21 06:00:15;;;;;;;10.50;8.23;;;6.90;99.90;;;;;;5072865;28;20262;-61
2020/12/21 06:02:42;;;;;;;11.87;9.27;;;6.90;99.90;;;;;;5072944;28;20554;-62
2020/12/21 06:05:10;;;;;;;10.80;9.10;;;6.90;99.90;;;;;;5072662;28;20208;-61
2020/12/21 06:07:37;;;;;;;9.60;8.60;;;7.00;99.90;;;;;;5071266;28;20288;-63
2020/12/21 06:10:06;;;;;;;13.53;9.57;;;7.20;99.90;;;;;;5072884;28;20209;-61
2020/12/21 06:12:43;;;;;;;10.63;8.83;;;7.30;99.90;;;;;;5073345;28;20231;-62
2020/12/21 06:15:12;;;;;;;11.83;9.70;;;7.40;99.90;;;;;;5073390;28;20281;-62
2020/12/21 06:17:39;;;;;;;9.70;7.67;;;7.40;99.90;;;;;;5072818;28;20335;-62
2020/12/21 06:20:10;;;;;;;9.23;8.23;;;7.50;99.90;;;;;;5072809;28;20217;-62
2020/12/21 06:22:37;;;;;;;10.20;8.30;;;7.50;99.90;;;;;;5074007;28;20208;-61
2020/12/21 06:25:05;;;;;;;9.93;7.80;;;7.50;99.90;;;;;;5075651;28;20205;-61
2020/12/21 06:27:42;;;;;;;10.47;8.70;;;7.60;99.90;;;;;;5075278;28;20225;-61
2020/12/21 06:30:10;;;;;;;10.03;8.70;;;7.60;99.90;;;;;;5074325;28;20208;-61
2020/12/21 06:32:37;;;;;;;12.03;8.70;;;7.50;99.90;;;;;;5074990;28;20225;-62
2020/12/21 06:35:05;;;;;;;10.80;8.30;;;7.40;99.90;;;;;;5075992;28;20219;-62
2020/12/21 06:37:33;;;;;;;10.13;8.03;;;7.40;99.90;;;;;;5076015;28;20244;-62
2020/12/21 06:40:01;;;;;;;8.73;7.30;;;7.50;99.90;;;;;;5077318;28;20209;-62
2020/12/21 06:42:27;;;;;;;9.37;7.23;;;7.40;99.90;;;;;;5078605;28;20201;-62
2020/12/21 06:44:55;;;;;;;9.20;7.80;;;7.20;99.90;;;;;;5076971;28;20653;-61
2020/12/21 06:47:23;;;;;;;8.10;7.17;;;7.20;99.90;;;;;;5077071;28;20294;-62
2020/12/21 06:49:49;;;;;;;8.47;7.60;;;7.10;99.90;;;;;;5077217;28;20236;-63
2020/12/21 06:52:16;;;;;;;8.43;7.53;;;7.00;99.90;;;;;;5077019;28;20236;-63
2020/12/21 06:54:44;;;;;;;9.53;7.70;;;7.00;99.90;;;;;;5076777;28;20205;-62
2020/12/21 06:57:10;;;;;;;10.40;7.57;;;6.80;99.90;;;;;;5075887;28;20224;-61
2020/12/21 06:59:37;;;;;;;8.67;7.70;;;6.70;99.90;;;;;;5076299;28;20242;-61
2020/12/21 07:02:03;;;;;;;8.43;7.50;;;6.60;99.90;;;;;;5072840;28;20211;-61
2020/12/21 07:04:32;;;;;;;8.47;7.53;;;6.60;99.90;;;;;;5071243;28;20209;-61
2020/12/21 07:07:01;;;;;;;11.00;8.20;;;6.60;99.90;;;;;;5071277;28;20290;-61
2020/12/21 07:09:30;;;;;;;9.53;8.10;;;6.50;99.90;;;;;;5071408;28;20201;-61
2020/12/21 07:11:58;;;;;;;8.57;7.67;;;6.50;99.90;;;;;;5071362;28;20235;-60
2020/12/21 07:14:25;;;;;;;9.63;7.47;;;6.50;99.90;;;;;;5071558;28;20579;-61
2020/12/21 07:17:02;;;;;;;11.77;7.83;;;6.40;99.90;;;;;;5071696;28;20229;-60
2020/12/21 07:19:28;;;;;;;9.10;8.07;;;6.30;99.90;;;;;;5073834;28;20192;-61
2020/12/21 07:21:55;;;;;;;10.93;8.27;;;6.30;99.90;;;;;;5075612;28;20455;-62
2020/12/21 07:24:22;;;;;;;9.27;8.23;;;6.40;99.90;;;;;;5074934;28;20567;-61
2020/12/21 07:26:48;;;;;;;11.50;8.07;;;6.40;99.90;;;;;;5074932;28;20221;-62
2020/12/21 07:29:15;;;;;;;9.30;8.23;;;6.50;99.90;;;;;;5074764;28;20205;-63
2020/12/21 07:31:43;;;;;;;10.00;8.47;;;6.60;99.90;;;;;;5074944;28;20224;-62
2020/12/21 07:34:09;;;;;;;9.00;7.63;;;6.60;99.90;;;;;;5075118;28;20209;-61
2020/12/21 07:36:37;;;;;;;9.07;7.70;;;6.60;99.90;;;;;;5074804;28;20201;-62
2020/12/21 07:39:08;;;;;;;8.43;7.37;;;6.60;99.90;;;;;;5074517;28;20226;-61
2020/12/21 07:41:35;;;;;;;9.93;7.83;;;6.60;99.90;;;;;;5074675;28;20207;-61
2020/12/21 07:44:05;;;;;;;9.73;7.67;;;6.50;99.90;;;;;;5074621;28;20601;-63
2020/12/21 07:46:41;;;;;;;9.13;7.83;;;6.60;99.90;;;;;;5075542;28;20209;-62
2020/12/21 07:49:09;;;;;;;10.97;8.67;;;6.60;99.90;;;;;;5075722;28;20205;-61
2020/12/21 07:51:37;;;;;;;9.77;8.20;;;6.50;99.90;;;;;;5075854;28;20579;-61
2020/12/21 07:54:04;;;;;;;8.87;7.23;;;6.60;99.90;;;;;;5082558;28;20205;-62
2020/12/21 07:56:30;;;;;;;8.63;7.73;;;6.60;99.90;;;;;;5081204;28;20205;-62
2020/12/21 07:58:56;;;;;;;10.90;9.17;;;6.70;99.90;;;;;;5077410;28;20212;-63
2020/12/21 08:01:23;;;;;;;9.97;8.23;;;6.80;99.90;;;;;;5081929;28;20204;-64
2020/12/21 08:03:53;;;;;;;8.70;7.63;;;6.80;99.90;;;;;;5077541;28;20209;-62
2020/12/21 08:06:24;;;;;;;11.77;7.83;;;6.90;99.90;;;;;;5074097;28;20295;-63
2020/12/21 08:08:50;;;;;;;10.23;7.53;;;7.00;99.90;;;;;;5073324;28;20240;-63
2020/12/21 08:11:18;;;;;;;9.13;7.30;;;7.10;99.90;;;;;;5071041;28;20229;-63
2020/12/21 08:13:48;;;;;;;8.80;6.60;;;7.30;99.90;;;;;;5073210;28;20227;-67
2020/12/21 08:16:15;;;;;;;7.97;6.80;;;7.30;99.90;;;;;;5073819;28;20227;-64
2020/12/21 08:18:45;;;;;;;7.80;6.80;;;7.30;99.90;;;;;;5073395;28;20225;-63
2020/12/21 08:21:14;;;;;;;8.87;6.73;;;7.20;99.90;;;;;;5073457;28;20215;-63
2020/12/21 08:23:41;;;;;;;6.67;5.97;;;7.30;99.90;;;;;;5073698;28;20295;-64
2020/12/21 08:26:14;;;;;;;6.80;5.53;;;7.30;99.90;;;;;;5074089;28;20250;-63
2020/12/21 08:28:40;;;;;;;6.60;5.50;;;7.30;99.90;;;;;;5073661;28;20276;-64
2020/12/21 08:31:09;;;;;;;7.27;5.80;;;7.30;99.90;;;;;;5072540;28;20205;-65
2020/12/21 08:33:35;;;;;;;5.73;5.13;;;7.30;99.90;;;;;;5072851;28;20256;-64
2020/12/21 08:36:24;;;;;;;5.67;4.97;;;7.50;99.90;;;;;;5073214;28;20691;-64
2020/12/21 08:38:51;;;;;;;10.60;5.90;;;7.70;99.90;;;;;;5073612;28;20225;-65
2020/12/21 08:41:19;;;;;;;6.80;5.00;;;7.80;99.90;;;;;;5072934;28;20209;-64
2020/12/21 08:43:45;;;;;;;5.07;4.57;;;7.70;99.90;;;;;;5072977;28;20201;-66
2020/12/21 08:46:13;;;;;;;8.03;5.80;;;7.80;99.90;;;;;;5072992;28;20220;-64
2020/12/21 08:48:42;;;;;;;6.53;5.80;;;7.80;99.90;;;;;;5072980;28;20228;-63
2020/12/21 08:51:09;;;;;;;5.50;4.77;;;8.00;99.90;;;;;;5072930;28;20213;-64
2020/12/21 08:53:36;;;;;;;5.10;4.50;;;8.20;99.90;;;;;;5072770;28;20205;-66
2020/12/21 08:56:10;;;;;;;5.97;4.53;;;8.20;99.90;;;;;;5072712;28;20263;-64
2020/12/21 08:58:37;;;;;;;5.93;4.63;;;8.20;99.90;;;;;;5072499;28;20287;-61
2020/12/21 09:01:04;;;;;;;5.20;4.57;;;8.20;99.90;;;;;;5072818;28;20205;-64
2020/12/21 09:03:31;;;;;;;7.07;5.30;;;8.10;99.90;;;;;;5072602;28;20205;-62
2020/12/21 09:05:57;;;;;;;6.43;4.77;;;8.10;99.90;;;;;;5072788;28;20204;-62
2020/12/21 09:08:23;;;;;;;5.07;4.57;;;8.10;99.90;;;;;;5095707;23;20278;-62
2020/12/21 09:10:50;;;;;;;5.13;4.53;;;8.20;99.90;;;;;;5092722;28;20264;-61
2020/12/21 09:13:17;;;;;;;5.90;5.00;;;8.30;99.90;;;;;;5092840;28;20225;-65
2020/12/21 09:15:43;;;;;;;5.20;4.70;;;8.30;99.90;;;;;;5092541;28;20208;-63
2020/12/21 09:18:09;;;;;;;7.00;4.90;;;8.30;99.90;;;;;;5092237;28;20224;-60
2020/12/21 09:20:35;;;;;;;6.10;4.93;;;8.50;99.90;;;;;;5092569;28;20204;-64
2020/12/21 09:23:02;;;;;;;5.77;4.67;;;8.60;99.90;;;;;;5092756;28;20210;-61
2020/12/21 09:25:28;;;;;;;7.73;5.20;;;8.60;99.90;;;;;;5092101;28;20630;-61
2020/12/21 09:27:55;;;;;;;6.30;4.17;;;8.60;99.90;;;;;;5092687;28;20243;-62
2020/12/21 09:30:21;;;;;;;6.00;4.33;;;8.70;99.90;;;;;;5092305;28;20668;-61
2020/12/21 09:32:47;;;;;;;5.97;4.90;;;8.70;99.90;;;;;;5093039;28;20220;-61
2020/12/21 09:35:13;;;;;;;5.43;4.47;;;8.80;99.90;;;;;;5092833;28;20209;-60
2020/12/21 09:37:40;;;;;;;5.53;4.77;;;8.90;99.90;;;;;;5092205;28;20227;-62
2020/12/21 09:40:06;;;;;;;7.83;5.93;;;9.10;99.90;;;;;;5092042;28;20211;-60
2020/12/21 09:42:32;;;;;;;4.27;3.83;;;9.20;99.90;;;;;;5091142;28;20220;-61
2020/12/21 09:44:59;;;;;;;7.07;4.50;;;9.30;99.90;;;;;;5091959;28;20204;-62
2020/12/21 09:47:25;;;;;;;5.33;4.57;;;9.20;99.90;;;;;;5092001;28;20719;-62
2020/12/21 09:49:51;;;;;;;4.97;4.20;;;9.30;99.90;;;;;;5091337;28;20246;-61
2020/12/21 09:52:17;;;;;;;6.03;4.70;;;9.30;99.90;;;;;;5091831;28;20249;-64
2020/12/21 09:54:44;;;;;;;6.93;4.97;;;9.20;99.90;;;;;;5091768;28;20239;-63
2020/12/21 09:57:10;;;;;;;5.83;4.73;;;9.10;99.90;;;;;;5092281;28;20204;-61
2020/12/21 09:59:36;;;;;;;5.93;4.73;;;8.90;99.90;;;;;;5092108;28;20204;-66
2020/12/21 10:02:07;;;;;;;6.27;4.73;;;8.90;99.90;;;;;;5092122;28;20204;-64
2020/12/21 10:04:33;;;;;;;6.60;5.17;;;9.00;99.90;;;;;;5091774;28;20243;-61
2020/12/21 10:06:59;;;;;;;7.00;5.23;;;9.10;99.90;;;;;;5092336;28;20204;-62
2020/12/21 10:09:25;;;;;;;7.93;6.03;;;9.10;99.90;;;;;;5091354;28;20212;-62
2020/12/21 10:11:51;;;;;;;9.33;6.00;;;9.00;99.90;;;;;;5091674;28;20224;-63
2020/12/21 10:14:18;;;;;;;13.07;7.43;;;9.10;99.90;;;;;;5091492;28;20207;-63
2020/12/21 10:16:44;;;;;;;9.80;5.03;;;9.10;99.90;;;;;;5091910;28;20208;-62
2020/12/21 10:19:11;;;;;;;7.10;5.03;;;9.30;99.90;;;;;;5091412;28;20227;-62
2020/12/21 10:21:37;;;;;;;7.13;4.97;;;9.50;99.90;;;;;;5091456;28;20249;-62
2020/12/21 10:24:03;;;;;;;6.90;5.27;;;9.80;99.90;;;;;;5091783;28;20272;-61
2020/12/21 10:26:29;;;;;;;7.37;5.03;;;9.90;99.90;;;;;;5091949;28;20211;-62
2020/12/21 10:28:55;;;;;;;6.47;4.77;;;10.00;99.90;;;;;;5091182;28;20227;-61
2020/12/21 10:31:22;;;;;;;6.00;4.20;;;9.90;99.90;;;;;;5091285;28;20608;-62
2020/12/21 10:33:48;;;;;;;6.00;4.70;;;9.80;99.90;;;;;;5091159;28;20208;-62
2020/12/21 10:36:15;;;;;;;7.37;4.97;;;9.60;99.90;;;;;;5091590;28;20215;-61
2020/12/21 10:38:42;;;;;;;4.93;4.23;;;9.50;99.90;;;;;;5091457;28;20264;-61
2020/12/21 10:41:08;;;;;;;6.60;4.53;;;9.50;99.90;;;;;;5091549;28;20654;-61
2020/12/21 10:43:35;;;;;;;6.63;4.67;;;9.50;99.90;;;;;;5091352;28;20208;-63
2020/12/21 10:46:01;;;;;;;4.33;3.80;;;9.60;99.90;;;;;;5091384;28;20200;-61
2020/12/21 10:48:27;;;;;;;5.43;4.00;;;9.70;99.90;;;;;;5090837;28;20281;-62
2020/12/21 10:50:54;;;;;;;4.00;3.60;;;9.80;99.90;;;;;;5091276;28;20207;-63
2020/12/21 10:53:22;;;;;;;8.60;4.43;;;10.00;99.90;;;;;;5090902;28;20220;-61
2020/12/21 10:55:48;;;;;;;6.63;4.67;;;10.00;99.90;;;;;;5091203;28;20616;-62
2020/12/21 10:58:14;;;;;;;5.90;4.63;;;10.20;99.90;;;;;;5090671;28;20270;-63
2020/12/21 11:00:41;;;;;;;6.20;4.57;;;10.40;99.90;;;;;;5091061;28;20211;-61
2020/12/21 11:03:07;;;;;;;7.47;4.73;;;10.50;99.90;;;;;;5090956;28;20205;-61
2020/12/21 11:05:33;;;;;;;7.57;5.07;;;10.60;99.90;;;;;;5090729;28;20673;-61
2020/12/21 11:07:59;;;;;;;8.83;5.67;;;10.70;99.90;;;;;;5090786;28;20243;-60
2020/12/21 11:10:26;;;;;;;5.67;4.80;;;10.90;99.90;;;;;;5090998;28;20618;-61
2020/12/21 11:12:53;;;;;;;4.97;3.87;;;11.10;99.90;;;;;;5090688;28;20270;-63
2020/12/21 11:15:19;;;;;;;6.20;4.40;;;11.30;99.90;;;;;;5090734;28;20204;-63
2020/12/21 11:17:45;;;;;;;9.73;7.07;;;11.40;99.90;;;;;;5090297;28;20232;-61
2020/12/21 11:20:11;;;;;;;5.90;4.23;;;11.60;99.90;;;;;;5090835;28;20637;-61
2020/12/21 11:22:38;;;;;;;6.47;4.23;;;11.70;99.90;;;;;;5090938;28;20447;-61
2020/12/21 11:25:04;;;;;;;11.10;7.30;;;11.80;99.90;;;;;;5090551;28;20269;-61
2020/12/21 11:27:31;;;;;;;10.30;6.77;;;11.90;99.90;;;;;;5090599;28;20223;-62
2020/12/21 11:29:57;;;;;;;8.13;4.53;;;12.00;99.90;;;;;;5090225;28;20204;-60
2020/12/21 11:32:23;;;;;;;5.50;4.40;;;12.10;99.90;;;;;;5090549;28;20216;-61
2020/12/21 11:34:50;;;;;;;6.10;4.30;;;12.20;99.90;;;;;;5089906;28;20239;-62
2020/12/21 11:37:16;;;;;;;6.93;4.47;;;12.20;99.90;;;;;;5090390;28;20734;-62
2020/12/21 11:39:42;;;;;;;4.70;4.10;;;12.20;99.90;;;;;;5090420;28;20203;-61
2020/12/21 11:42:09;;;;;;;7.33;4.10;;;12.00;99.90;;;;;;5090443;28;20299;-60
2020/12/21 11:44:36;;;;;;;9.00;4.90;;;11.80;99.90;;;;;;5090110;28;20207;-59
2020/12/21 11:47:07;;;;;;;5.03;4.53;;;11.60;99.90;;;;;;5090546;28;20262;-63
2020/12/21 11:49:33;;;;;;;8.57;6.47;;;11.50;99.90;;;;;;5090211;28;20291;-62
2020/12/21 11:52:00;;;;;;;7.37;4.47;;;11.40;99.90;;;;;;5090522;28;20722;-60
2020/12/21 11:54:26;;;;;;;8.73;4.53;;;11.30;99.90;;;;;;5090391;28;20212;-62
2020/12/21 11:56:54;;;;;;;5.90;4.47;;;11.20;99.90;;;;;;5090324;28;20257;-62
2020/12/21 11:59:21;;;;;;;6.53;4.80;;;11.10;99.90;;;;;;5090037;28;20204;-66
2020/12/21 12:01:48;;;;;;;6.23;4.67;;;11.20;99.90;;;;;;5090553;28;20208;-63
2020/12/21 12:04:14;;;;;;;12.80;7.40;;;11.30;99.90;;;;;;5090493;28;20231;-65
2020/12/21 12:06:41;;;;;;;8.70;5.40;;;11.60;99.90;;;;;;5093088;28;20560;-63
2020/12/21 12:09:07;;;;;;;8.30;5.27;;;11.80;99.90;;;;;;5094049;28;20231;-62
2020/12/21 12:11:34;;;;;;;10.50;5.93;;;12.10;99.90;;;;;;5094012;28;20200;-63
2020/12/21 12:14:00;;;;;;;6.37;4.53;;;12.20;99.90;;;;;;5093871;28;20667;-63
2020/12/21 12:16:26;;;;;;;6.90;4.40;;;12.20;99.90;;;;;;5093871;28;20606;-64
2020/12/21 12:18:53;;;;;;;8.27;4.97;;;12.30;99.90;;;;;;5093759;28;20227;-61
2020/12/21 12:21:23;;;;;;;6.43;4.37;;;12.20;99.90;;;;;;5093712;28;20208;-62
2020/12/21 12:23:49;;;;;;;6.73;4.57;;;12.20;99.90;;;;;;5093722;28;20208;-62
2020/12/21 12:26:17;;;;;;;6.27;4.00;;;12.20;99.90;;;;;;5094179;28;20208;-63
2020/12/21 12:28:43;;;;;;;5.77;4.20;;;12.20;99.90;;;;;;5093572;28;20243;-62
2020/12/21 12:31:09;;;;;;;5.00;3.57;;;12.10;99.90;;;;;;5093575;28;20250;-63
2020/12/21 12:33:36;;;;;;;6.40;3.73;;;12.00;99.90;;;;;;5093293;28;20281;-63
2020/12/21 12:36:03;;;;;;;8.70;4.33;;;11.90;99.90;;;;;;5093634;28;20208;-63
2020/12/21 12:38:29;;;;;;;2.97;2.27;;;12.00;99.90;;;;;;5093414;28;20509;-63
2020/12/21 12:40:55;;;;;;;4.50;2.87;;;12.00;99.90;;;;;;5093593;28;20215;-63
2020/12/21 12:43:21;;;;;;;6.37;2.30;;;12.00;99.90;;;;;;5093356;28;20204;-63
2020/12/21 12:45:48;;;;;;;3.37;2.10;;;12.10;99.90;;;;;;5093129;28;20205;-63
2020/12/21 12:48:14;;;;;;;2.73;2.20;;;12.10;99.90;;;;;;5093166;28;20231;-62